sensor_id;sensor_type;location;lat;lon;timestamp;pressure;altitude;pressure_sealevel;temperature;humidity
65175;BME280;51761;42.126;24.752;2022-07-12T00:01:28;99928.03;;;19.99;41.52
65175;BME280;51761;42.126;24.752;2022-07-12T00:03:54;99926.31;;;19.93;41.83
65175;BME280;51761;42.126;24.752;2022-07-12T00:06:19;99907.19;;;19.70;42.05
65175;BME280;51761;42.126;24.752;2022-07-12T00:08:45;99928.53;;;19.89;41.95
65175;BME280;51761;42.126;24.752;2022-07-12T00:11:10;99929.50;;;19.77;42.47
65175;BME280;51761;42.126;24.752;2022-07-12T00:13:36;99940.38;;;19.78;42.37
65175;BME280;51761;42.126;24.752;2022-07-12T00:16:01;99936.75;;;19.78;42.36
65175;BME280;51761;42.126;24.752;2022-07-12T00:18:27;99924.53;;;19.63;42.14
65175;BME280;51761;42.126;24.752;2022-07-12T00:20:53;99933.31;;;19.74;42.38
65175;BME280;51761;42.126;24.752;2022-07-12T00:23:18;99938.06;;;19.68;42.28
65175;BME280;51761;42.126;24.752;2022-07-12T00:25:44;99940.22;;;19.73;42.47
65175;BME280;51761;42.126;24.752;2022-07-12T00:28:09;99944.34;;;19.72;42.36
65175;BME280;51761;42.126;24.752;2022-07-12T00:30:35;99943.88;;;19.64;42.73
65175;BME280;51761;42.126;24.752;2022-07-12T00:33:00;99903.19;;;19.35;42.70
65175;BME280;51761;42.126;24.752;2022-07-12T00:35:26;99930.38;;;19.41;42.83
65175;BME280;51761;42.126;24.752;2022-07-12T00:37:52;99951.03;;;19.42;43.13
65175;BME280;51761;42.126;24.752;2022-07-12T00:40:17;99959.38;;;19.45;43.26
65175;BME280;51761;42.126;24.752;2022-07-12T00:42:43;99951.97;;;19.39;43.37
65175;BME280;51761;42.126;24.752;2022-07-12T00:45:09;99923.34;;;19.10;43.68
65175;BME280;51761;42.126;24.752;2022-07-12T00:47:39;99943.97;;;19.20;43.48
65175;BME280;51761;42.126;24.752;2022-07-12T00:50:14;99947.75;;;19.25;43.72
65175;BME280;51761;42.126;24.752;2022-07-12T00:52:42;99950.88;;;19.27;43.36
65175;BME280;51761;42.126;24.752;2022-07-12T00:55:08;99947.13;;;19.22;43.54
65175;BME280;51761;42.126;24.752;2022-07-12T00:57:36;99932.00;;;19.07;43.86
65175;BME280;51761;42.126;24.752;2022-07-12T01:00:04;99954.81;;;19.21;43.77
65175;BME280;51761;42.126;24.752;2022-07-12T01:02:31;99940.78;;;19.09;44.11
65175;BME280;51761;42.126;24.752;2022-07-12T01:04:56;99946.63;;;19.14;43.89
65175;BME280;51761;42.126;24.752;2022-07-12T01:07:25;99913.59;;;18.93;43.71
65175;BME280;51761;42.126;24.752;2022-07-12T01:09:51;99945.34;;;19.15;43.69
65175;BME280;51761;42.126;24.752;2022-07-12T01:12:18;99951.16;;;19.12;43.63
65175;BME280;51761;42.126;24.752;2022-07-12T01:14:44;99946.47;;;19.00;43.93
65175;BME280;51761;42.126;24.752;2022-07-12T01:17:10;99937.66;;;18.98;43.81
65175;BME280;51761;42.126;24.752;2022-07-12T01:19:36;99919.13;;;18.88;43.96
65175;BME280;51761;42.126;24.752;2022-07-12T01:22:15;99932.63;;;18.93;44.22
65175;BME280;51761;42.126;24.752;2022-07-12T01:24:42;99926.66;;;18.82;44.31
65175;BME280;51761;42.126;24.752;2022-07-12T01:27:10;99935.28;;;18.96;44.19
65175;BME280;51761;42.126;24.752;2022-07-12T01:29:36;99929.19;;;18.89;44.36
65175;BME280;51761;42.126;24.752;2022-07-12T01:32:03;99896.00;;;18.62;44.49
65175;BME280;51761;42.126;24.752;2022-07-12T01:34:48;99927.59;;;18.79;44.46
65175;BME280;51761;42.126;24.752;2022-07-12T01:37:14;99927.13;;;18.80;44.29
65175;BME280;51761;42.126;24.752;2022-07-12T01:39:43;99930.72;;;18.81;44.11
65175;BME280;51761;42.126;24.752;2022-07-12T01:42:09;99924.31;;;18.80;44.41
65175;BME280;51761;42.126;24.752;2022-07-12T01:44:34;99926.00;;;18.78;44.28
65175;BME280;51761;42.126;24.752;2022-07-12T01:47:27;99939.06;;;18.84;44.59
65175;BME280;51761;42.126;24.752;2022-07-12T01:49:54;99887.34;;;18.57;44.05
65175;BME280;51761;42.126;24.752;2022-07-12T01:52:20;99916.59;;;18.72;44.43
65175;BME280;51761;42.126;24.752;2022-07-12T01:54:46;99929.16;;;18.71;44.37
65175;BME280;51761;42.126;24.752;2022-07-12T01:57:12;99925.09;;;18.63;44.82
65175;BME280;51761;42.126;24.752;2022-07-12T01:59:38;99927.75;;;18.57;45.12
65175;BME280;51761;42.126;24.752;2022-07-12T02:02:05;99947.84;;;18.59;45.28
65175;BME280;51761;42.126;24.752;2022-07-12T02:04:30;99929.94;;;18.53;45.39
65175;BME280;51761;42.126;24.752;2022-07-12T02:06:56;99950.34;;;18.48;45.71
65175;BME280;51761;42.126;24.752;2022-07-12T02:09:22;99953.00;;;18.34;46.00
65175;BME280;51761;42.126;24.752;2022-07-12T02:11:48;99947.47;;;18.30;46.23
65175;BME280;51761;42.126;24.752;2022-07-12T02:14:14;99950.00;;;18.28;46.47
65175;BME280;51761;42.126;24.752;2022-07-12T02:16:42;99921.50;;;18.14;46.86
65175;BME280;51761;42.126;24.752;2022-07-12T02:19:08;99954.06;;;18.27;46.41
65175;BME280;51761;42.126;24.752;2022-07-12T02:21:34;99955.66;;;18.28;46.40
65175;BME280;51761;42.126;24.752;2022-07-12T02:24:01;99955.28;;;18.17;46.91
65175;BME280;51761;42.126;24.752;2022-07-12T02:26:27;99932.88;;;17.92;47.14
65175;BME280;51761;42.126;24.752;2022-07-12T02:28:52;99954.59;;;18.04;47.17
65175;BME280;51761;42.126;24.752;2022-07-12T02:31:18;99922.50;;;17.89;47.19
65175;BME280;51761;42.126;24.752;2022-07-12T02:33:43;99956.16;;;18.05;47.18
65175;BME280;51761;42.126;24.752;2022-07-12T02:36:09;99960.97;;;17.96;47.21
65175;BME280;51761;42.126;24.752;2022-07-12T02:38:35;99955.16;;;17.90;47.34
65175;BME280;51761;42.126;24.752;2022-07-12T02:41:00;99959.56;;;17.91;47.26
65175;BME280;51761;42.126;24.752;2022-07-12T02:43:30;99951.53;;;17.90;47.17
65175;BME280;51761;42.126;24.752;2022-07-12T02:46:04;99949.22;;;17.97;47.06
65175;BME280;51761;42.126;24.752;2022-07-12T02:48:30;99962.44;;;18.00;47.10
65175;BME280;51761;42.126;24.752;2022-07-12T02:50:55;99963.22;;;18.01;47.20
65175;BME280;51761;42.126;24.752;2022-07-12T02:53:21;99963.22;;;18.01;46.92
65175;BME280;51761;42.126;24.752;2022-07-12T02:55:47;99941.97;;;17.87;46.72
65175;BME280;51761;42.126;24.752;2022-07-12T02:58:14;99928.28;;;17.86;47.25
65175;BME280;51761;42.126;24.752;2022-07-12T03:00:40;99968.72;;;18.04;46.55
65175;BME280;51761;42.126;24.752;2022-07-12T03:03:06;99959.59;;;18.00;46.72
65175;BME280;51761;42.126;24.752;2022-07-12T03:05:34;99939.69;;;18.04;46.44
65175;BME280;51761;42.126;24.752;2022-07-12T03:07:59;99963.13;;;18.22;46.86
65175;BME280;51761;42.126;24.752;2022-07-12T03:10:25;99966.28;;;18.24;46.44
65175;BME280;51761;42.126;24.752;2022-07-12T03:12:50;99960.00;;;18.20;46.17
65175;BME280;51761;42.126;24.752;2022-07-12T03:15:16;99960.50;;;18.28;46.26
65175;BME280;51761;42.126;24.752;2022-07-12T03:17:42;99962.97;;;18.26;46.46
65175;BME280;51761;42.126;24.752;2022-07-12T03:20:08;99966.75;;;18.23;46.68
65175;BME280;51761;42.126;24.752;2022-07-12T03:22:37;99961.31;;;18.28;47.12
65175;BME280;51761;42.126;24.752;2022-07-12T03:25:02;99969.97;;;18.34;50.46
65175;BME280;51761;42.126;24.752;2022-07-12T03:27:28;99967.66;;;18.50;51.95
65175;BME280;51761;42.126;24.752;2022-07-12T03:30:07;99967.19;;;18.61;46.05
65175;BME280;51761;42.126;24.752;2022-07-12T03:32:33;99970.78;;;18.52;45.50
65175;BME280;51761;42.126;24.752;2022-07-12T03:34:59;99977.84;;;18.57;49.42
65175;BME280;51761;42.126;24.752;2022-07-12T03:37:24;99956.63;;;18.43;46.13
65175;BME280;51761;42.126;24.752;2022-07-12T03:39:50;99976.94;;;18.69;50.53
65175;BME280;51761;42.126;24.752;2022-07-12T03:42:15;99990.16;;;18.81;47.47
65175;BME280;51761;42.126;24.752;2022-07-12T03:44:41;99986.56;;;18.80;46.84
65175;BME280;51761;42.126;24.752;2022-07-12T03:47:06;99991.13;;;18.96;51.36
65175;BME280;51761;42.126;24.752;2022-07-12T03:49:32;99992.22;;;18.98;51.32
65175;BME280;51761;42.126;24.752;2022-07-12T03:51:57;99986.69;;;18.86;47.61
65175;BME280;51761;42.126;24.752;2022-07-12T03:54:23;100001.97;;;18.79;46.34
65175;BME280;51761;42.126;24.752;2022-07-12T03:56:49;99998.81;;;18.95;46.33
65175;BME280;51761;42.126;24.752;2022-07-12T03:59:33;100003.22;;;18.87;47.19
65175;BME280;51761;42.126;24.752;2022-07-12T04:01:58;100001.97;;;18.79;49.43
65175;BME280;51761;42.126;24.752;2022-07-12T04:04:24;100009.97;;;18.81;54.30
65175;BME280;51761;42.126;24.752;2022-07-12T04:06:49;100004.13;;;18.66;47.97
65175;BME280;51761;42.126;24.752;2022-07-12T04:09:15;99969.84;;;18.55;48.89
65175;BME280;51761;42.126;24.752;2022-07-12T04:11:41;100010.13;;;18.77;46.95
65175;BME280;51761;42.126;24.752;2022-07-12T04:14:07;100009.50;;;18.73;46.35
65175;BME280;51761;42.126;24.752;2022-07-12T04:16:36;99975.38;;;18.59;47.27
65175;BME280;51761;42.126;24.752;2022-07-12T04:19:02;99997.25;;;18.76;48.92
65175;BME280;51761;42.126;24.752;2022-07-12T04:21:30;100010.59;;;18.85;47.91
65175;BME280;51761;42.126;24.752;2022-07-12T04:23:56;100004.81;;;18.88;48.16
65175;BME280;51761;42.126;24.752;2022-07-12T04:26:21;99992.19;;;18.71;45.87
65175;BME280;51761;42.126;24.752;2022-07-12T04:28:47;100004.78;;;18.79;46.29
65175;BME280;51761;42.126;24.752;2022-07-12T04:31:12;100017.88;;;18.95;47.13
65175;BME280;51761;42.126;24.752;2022-07-12T04:33:38;100024.47;;;19.10;45.75
65175;BME280;51761;42.126;24.752;2022-07-12T04:36:03;100027.94;;;19.05;46.68
65175;BME280;51761;42.126;24.752;2022-07-12T04:38:29;100024.47;;;19.10;46.38
65175;BME280;51761;42.126;24.752;2022-07-12T04:40:54;100027.03;;;19.17;45.90
65175;BME280;51761;42.126;24.752;2022-07-12T04:43:20;100001.34;;;19.11;47.00
65175;BME280;51761;42.126;24.752;2022-07-12T04:45:46;100020.28;;;19.32;50.87
65175;BME280;51761;42.126;24.752;2022-07-12T04:48:12;100023.25;;;19.46;45.39
65175;BME280;51761;42.126;24.752;2022-07-12T04:50:39;100024.97;;;19.62;45.49
65175;BME280;51761;42.126;24.752;2022-07-12T04:53:04;100023.06;;;19.68;46.05
65175;BME280;51761;42.126;24.752;2022-07-12T04:55:57;100025.53;;;19.84;50.32
65175;BME280;51761;42.126;24.752;2022-07-12T04:58:23;100030.91;;;19.91;43.81
65175;BME280;51761;42.126;24.752;2022-07-12T05:00:50;100024.91;;;19.89;47.89
65175;BME280;51761;42.126;24.752;2022-07-12T05:03:15;99990.28;;;19.76;43.96
65175;BME280;51761;42.126;24.752;2022-07-12T05:05:42;100005.06;;;19.89;43.57
65175;BME280;51761;42.126;24.752;2022-07-12T05:08:07;99995.72;;;19.97;42.77
65175;BME280;51761;42.126;24.752;2022-07-12T05:10:33;100027.69;;;20.16;45.75
65175;BME280;51761;42.126;24.752;2022-07-12T05:12:58;100033.63;;;20.27;43.98
65175;BME280;51761;42.126;24.752;2022-07-12T05:15:24;100036.41;;;20.45;45.13
65175;BME280;51761;42.126;24.752;2022-07-12T05:17:49;100028.59;;;20.54;43.85
65175;BME280;51761;42.126;24.752;2022-07-12T05:20:15;99989.16;;;20.33;43.75
65175;BME280;51761;42.126;24.752;2022-07-12T05:22:41;100024.75;;;20.43;42.58
65175;BME280;51761;42.126;24.752;2022-07-12T05:25:07;100046.44;;;20.55;42.38
65175;BME280;51761;42.126;24.752;2022-07-12T05:27:34;100041.13;;;20.48;42.76
65175;BME280;51761;42.126;24.752;2022-07-12T05:30:00;100041.19;;;20.62;43.58
65175;BME280;51761;42.126;24.752;2022-07-12T05:32:25;100033.59;;;20.68;42.33
65175;BME280;51761;42.126;24.752;2022-07-12T05:34:51;100029.78;;;20.71;42.10
65175;BME280;51761;42.126;24.752;2022-07-12T05:37:16;100030.34;;;20.84;42.11
65175;BME280;51761;42.126;24.752;2022-07-12T05:39:42;100039.28;;;21.00;43.46
65175;BME280;51761;42.126;24.752;2022-07-12T05:42:07;100038.31;;;21.03;42.88
65175;BME280;51761;42.126;24.752;2022-07-12T05:44:33;100041.66;;;21.16;42.59
65175;BME280;51761;42.126;24.752;2022-07-12T05:46:58;100009.66;;;21.16;41.44
65175;BME280;51761;42.126;24.752;2022-07-12T05:49:24;100019.06;;;21.22;40.93
65175;BME280;51761;42.126;24.752;2022-07-12T05:51:49;100057.97;;;21.30;43.59
65175;BME280;51761;42.126;24.752;2022-07-12T05:54:33;100045.19;;;21.49;42.47
65175;BME280;51761;42.126;24.752;2022-07-12T05:56:58;100039.41;;;21.44;42.18
65175;BME280;51761;42.126;24.752;2022-07-12T05:59:24;100044.88;;;21.71;41.27
65175;BME280;51761;42.126;24.752;2022-07-12T06:01:49;100041.78;;;21.60;41.07
65175;BME280;51761;42.126;24.752;2022-07-12T06:04:15;100036.53;;;21.67;40.26
65175;BME280;51761;42.126;24.752;2022-07-12T06:06:40;100043.38;;;21.75;40.31
65175;BME280;51761;42.126;24.752;2022-07-12T06:09:06;100005.94;;;21.62;40.97
65175;BME280;51761;42.126;24.752;2022-07-12T06:11:31;100039.78;;;21.89;40.49
65175;BME280;51761;42.126;24.752;2022-07-12T06:13:59;100003.97;;;21.97;38.41
65175;BME280;51761;42.126;24.752;2022-07-12T06:16:24;99998.09;;;22.01;38.55
65175;BME280;51761;42.126;24.752;2022-07-12T06:18:50;100024.16;;;22.28;39.51
65175;BME280;51761;42.126;24.752;2022-07-12T06:21:16;99991.69;;;22.20;39.10
65175;BME280;51761;42.126;24.752;2022-07-12T06:23:41;100029.03;;;22.57;39.29
65175;BME280;51761;42.126;24.752;2022-07-12T06:26:07;100033.47;;;22.77;37.96
65175;BME280;51761;42.126;24.752;2022-07-12T06:28:32;100028.00;;;22.74;37.68
65175;BME280;51761;42.126;24.752;2022-07-12T06:30:58;100025.50;;;22.81;38.46
65175;BME280;51761;42.126;24.752;2022-07-12T06:33:23;100019.81;;;22.81;38.29
65175;BME280;51761;42.126;24.752;2022-07-12T06:35:49;100022.31;;;22.94;37.97
65175;BME280;51761;42.126;24.752;2022-07-12T06:38:15;100021.47;;;22.88;37.17
65175;BME280;51761;42.126;24.752;2022-07-12T06:40:41;100021.47;;;22.88;39.72
65175;BME280;51761;42.126;24.752;2022-07-12T06:43:10;100007.44;;;23.04;38.29
65175;BME280;51761;42.126;24.752;2022-07-12T06:45:39;100016.78;;;23.25;38.55
65175;BME280;51761;42.126;24.752;2022-07-12T06:48:05;100017.03;;;23.41;37.47
65175;BME280;51761;42.126;24.752;2022-07-12T06:50:32;100031.94;;;23.56;37.69
65175;BME280;51761;42.126;24.752;2022-07-12T06:52:57;100014.06;;;23.56;37.53
65175;BME280;51761;42.126;24.752;2022-07-12T06:55:23;99997.81;;;23.42;36.55
65175;BME280;51761;42.126;24.752;2022-07-12T06:57:49;100015.53;;;23.71;37.26
65175;BME280;51761;42.126;24.752;2022-07-12T07:00:14;100023.91;;;23.80;36.32
65175;BME280;51761;42.126;24.752;2022-07-12T07:02:40;99976.81;;;23.65;35.82
65175;BME280;51761;42.126;24.752;2022-07-12T07:05:06;100006.97;;;23.71;36.98
65175;BME280;51761;42.126;24.752;2022-07-12T07:07:32;99969.91;;;23.71;37.25
65175;BME280;51761;42.126;24.752;2022-07-12T07:09:58;100014.81;;;24.02;37.22
65175;BME280;51761;42.126;24.752;2022-07-12T07:12:24;99972.88;;;23.82;35.95
65175;BME280;51761;42.126;24.752;2022-07-12T07:14:49;100017.25;;;24.14;35.58
65175;BME280;51761;42.126;24.752;2022-07-12T07:17:16;99980.91;;;24.09;35.41
65175;BME280;51761;42.126;24.752;2022-07-12T07:19:45;100010.25;;;24.46;34.73
65175;BME280;51761;42.126;24.752;2022-07-12T07:22:12;100021.13;;;24.42;35.35
65175;BME280;51761;42.126;24.752;2022-07-12T07:24:38;99948.28;;;24.21;35.94
65175;BME280;51761;42.126;24.752;2022-07-12T07:27:04;100010.53;;;24.84;35.77
65175;BME280;51761;42.126;24.752;2022-07-12T07:29:29;100007.41;;;25.35;35.29
65175;BME280;51761;42.126;24.752;2022-07-12T07:32:13;99972.63;;;25.53;35.05
65175;BME280;51761;42.126;24.752;2022-07-12T07:34:39;99995.88;;;26.04;32.86
65175;BME280;51761;42.126;24.752;2022-07-12T07:37:05;99975.53;;;26.68;31.24
65175;BME280;51761;42.126;24.752;2022-07-12T07:39:30;100003.22;;;27.34;30.53
65175;BME280;51761;42.126;24.752;2022-07-12T07:41:56;99978.66;;;27.89;29.87
65175;BME280;51761;42.126;24.752;2022-07-12T07:44:21;99957.72;;;28.29;29.56
65175;BME280;51761;42.126;24.752;2022-07-12T07:46:47;99984.38;;;28.78;28.32
65175;BME280;51761;42.126;24.752;2022-07-12T07:49:13;99960.53;;;28.88;28.69
65175;BME280;51761;42.126;24.752;2022-07-12T07:51:38;99992.94;;;28.59;28.20
65175;BME280;51761;42.126;24.752;2022-07-12T07:54:04;99985.91;;;29.50;27.74
65175;BME280;51761;42.126;24.752;2022-07-12T07:56:29;99978.16;;;29.40;28.86
65175;BME280;51761;42.126;24.752;2022-07-12T07:58:56;99988.72;;;30.24;27.35
65175;BME280;51761;42.126;24.752;2022-07-12T08:01:21;99985.22;;;30.44;26.09
65175;BME280;51761;42.126;24.752;2022-07-12T08:04:07;99989.41;;;30.75;25.03
65175;BME280;51761;42.126;24.752;2022-07-12T08:06:32;99977.53;;;30.65;25.56
65175;BME280;51761;42.126;24.752;2022-07-12T08:08:58;99954.72;;;30.36;26.09
65175;BME280;51761;42.126;24.752;2022-07-12T08:11:24;99976.69;;;30.52;24.96
65175;BME280;51761;42.126;24.752;2022-07-12T08:13:49;99983.03;;;31.20;24.38
65175;BME280;51761;42.126;24.752;2022-07-12T08:16:15;99967.22;;;31.08;24.15
65175;BME280;51761;42.126;24.752;2022-07-12T08:18:40;99968.34;;;30.80;25.38
65175;BME280;51761;42.126;24.752;2022-07-12T08:21:05;99962.56;;;31.18;25.79
65175;BME280;51761;42.126;24.752;2022-07-12T08:23:50;99944.44;;;31.44;25.31
65175;BME280;51761;42.126;24.752;2022-07-12T08:26:16;99955.56;;;31.40;25.22
65175;BME280;51761;42.126;24.752;2022-07-12T08:28:42;99965.88;;;31.09;24.18
65175;BME280;51761;42.126;24.752;2022-07-12T08:31:08;99953.31;;;31.46;23.58
65175;BME280;51761;42.126;24.752;2022-07-12T08:33:33;99956.09;;;31.51;23.53
65175;BME280;51761;42.126;24.752;2022-07-12T08:35:59;99948.69;;;31.30;24.87
65175;BME280;51761;42.126;24.752;2022-07-12T08:38:25;99949.09;;;31.47;24.82
65175;BME280;51761;42.126;24.752;2022-07-12T08:40:50;99935.44;;;31.47;23.89
65175;BME280;51761;42.126;24.752;2022-07-12T08:50:19;99944.59;;;31.13;24.36
65175;BME280;51761;42.126;24.752;2022-07-12T08:52:50;99923.00;;;31.52;24.02
65175;BME280;51761;42.126;24.752;2022-07-12T08:55:33;99893.78;;;30.58;24.44
65175;BME280;51761;42.126;24.752;2022-07-12T08:58:04;99918.63;;;30.61;24.08
65175;BME280;51761;42.126;24.752;2022-07-12T09:00:32;99937.66;;;30.38;24.29
65175;BME280;51761;42.126;24.752;2022-07-12T09:03:00;99939.69;;;31.08;23.24
65175;BME280;51761;42.126;24.752;2022-07-12T09:05:31;99938.78;;;31.38;22.28
65175;BME280;51761;42.126;24.752;2022-07-12T09:08:08;99935.19;;;30.86;24.03
65175;BME280;51761;42.126;24.752;2022-07-12T09:10:34;99923.22;;;29.93;24.82
65175;BME280;51761;42.126;24.752;2022-07-12T09:13:00;99940.63;;;30.01;25.23
65175;BME280;51761;42.126;24.752;2022-07-12T09:15:27;99944.25;;;30.20;25.03
65175;BME280;51761;42.126;24.752;2022-07-12T09:18:00;99936.34;;;30.39;24.16
65175;BME280;51761;42.126;24.752;2022-07-12T09:20:28;99850.31;;;29.54;24.92
65175;BME280;51761;42.126;24.752;2022-07-12T09:22:57;99928.72;;;29.60;25.55
65175;BME280;51761;42.126;24.752;2022-07-12T09:25:23;99896.75;;;29.45;25.07
65175;BME280;51761;42.126;24.752;2022-07-12T09:27:54;99908.16;;;29.69;24.33
65175;BME280;51761;42.126;24.752;2022-07-12T09:30:21;99919.00;;;29.63;24.18
65175;BME280;51761;42.126;24.752;2022-07-12T09:33:05;99924.56;;;29.92;23.35
65175;BME280;51761;42.126;24.752;2022-07-12T09:38:52;99910.81;;;29.98;24.02
65175;BME280;51761;42.126;24.752;2022-07-12T09:41:22;99919.34;;;30.22;24.40
65175;BME280;51761;42.126;24.752;2022-07-12T09:43:49;99916.88;;;30.13;23.93
65175;BME280;51761;42.126;24.752;2022-07-12T09:46:15;99896.44;;;29.98;23.99
65175;BME280;51761;42.126;24.752;2022-07-12T09:48:43;99904.66;;;30.07;24.18
65175;BME280;51761;42.126;24.752;2022-07-12T09:51:16;99909.03;;;29.95;22.84
65175;BME280;51761;42.126;24.752;2022-07-12T09:53:49;99914.09;;;30.08;22.37
65175;BME280;51761;42.126;24.752;2022-07-12T09:56:17;99913.56;;;29.91;23.97
65175;BME280;51761;42.126;24.752;2022-07-12T10:01:20;99909.00;;;30.14;23.90
65175;BME280;51761;42.126;24.752;2022-07-12T10:03:46;99906.16;;;30.27;24.59
65175;BME280;51761;42.126;24.752;2022-07-12T10:06:14;99880.66;;;30.18;22.80
65175;BME280;51761;42.126;24.752;2022-07-12T10:08:41;99897.25;;;30.56;23.98
65175;BME280;51761;42.126;24.752;2022-07-12T10:11:07;99904.84;;;30.41;24.00
65175;BME280;51761;42.126;24.752;2022-07-12T10:13:33;99901.94;;;30.28;22.47
65175;BME280;51761;42.126;24.752;2022-07-12T10:16:02;99883.97;;;30.22;23.93
65175;BME280;51761;42.126;24.752;2022-07-12T10:18:28;99890.78;;;30.50;22.69
65175;BME280;51761;42.126;24.752;2022-07-12T10:20:55;99878.13;;;30.40;23.49
65175;BME280;51761;42.126;24.752;2022-07-12T10:23:37;99870.22;;;30.15;23.15
65175;BME280;51761;42.126;24.752;2022-07-12T10:28:59;99880.78;;;29.62;23.08
65175;BME280;51761;42.126;24.752;2022-07-12T10:31:29;99875.09;;;29.75;23.85
65175;BME280;51761;42.126;24.752;2022-07-12T10:34:22;99868.88;;;30.03;23.02
65175;BME280;51761;42.126;24.752;2022-07-12T10:39:23;99876.41;;;30.06;23.85
65175;BME280;51761;42.126;24.752;2022-07-12T10:42:12;99838.66;;;29.78;24.33
65175;BME280;51761;42.126;24.752;2022-07-12T10:44:46;99824.28;;;29.78;24.32
65175;BME280;51761;42.126;24.752;2022-07-12T10:47:13;99859.28;;;29.95;24.81
65175;BME280;51761;42.126;24.752;2022-07-12T10:49:48;99853.47;;;30.13;25.69
65175;BME280;51761;42.126;24.752;2022-07-12T10:52:23;99859.50;;;30.41;23.65
65175;BME280;51761;42.126;24.752;2022-07-12T10:57:43;99856.19;;;29.93;23.41
65175;BME280;51761;42.126;24.752;2022-07-12T11:00:10;99814.41;;;29.86;24.82
65175;BME280;51761;42.126;24.752;2022-07-12T11:02:36;99852.28;;;30.09;23.52
65175;BME280;51761;42.126;24.752;2022-07-12T11:05:03;99842.31;;;29.78;23.56
65175;BME280;51761;42.126;24.752;2022-07-12T11:07:29;99850.41;;;30.24;24.59
65175;BME280;51761;42.126;24.752;2022-07-12T11:09:55;99843.19;;;30.31;25.14
65175;BME280;51761;42.126;24.752;2022-07-12T11:12:30;99830.13;;;30.43;23.99
65175;BME280;51761;42.126;24.752;2022-07-12T11:14:58;99840.22;;;30.36;25.35
65175;BME280;51761;42.126;24.752;2022-07-12T11:17:28;99839.09;;;30.26;24.95
65175;BME280;51761;42.126;24.752;2022-07-12T11:20:12;99814.59;;;30.33;24.25
65175;BME280;51761;42.126;24.752;2022-07-12T11:22:40;99837.00;;;30.53;24.21
65175;BME280;51761;42.126;24.752;2022-07-12T11:25:08;99829.91;;;30.41;24.23
65175;BME280;51761;42.126;24.752;2022-07-12T11:27:34;99807.84;;;30.30;24.26
65175;BME280;51761;42.126;24.752;2022-07-12T11:30:01;99838.97;;;30.32;24.89
65175;BME280;51761;42.126;24.752;2022-07-12T11:32:37;99831.91;;;30.46;23.65
65175;BME280;51761;42.126;24.752;2022-07-12T11:35:17;99814.06;;;30.60;24.71
65175;BME280;51761;42.126;24.752;2022-07-12T11:37:56;99823.59;;;30.55;24.60
65175;BME280;51761;42.126;24.752;2022-07-12T11:40:27;99816.38;;;30.62;24.40
65175;BME280;51761;42.126;24.752;2022-07-12T11:42:57;99828.34;;;30.53;24.32
65175;BME280;51761;42.126;24.752;2022-07-12T11:45:45;99831.22;;;30.14;24.46
65175;BME280;51761;42.126;24.752;2022-07-12T11:48:11;99788.44;;;30.05;25.28
65175;BME280;51761;42.126;24.752;2022-07-12T11:50:37;99816.28;;;30.54;23.79
65175;BME280;51761;42.126;24.752;2022-07-12T11:53:03;99817.94;;;30.76;23.85
65175;BME280;51761;42.126;24.752;2022-07-12T11:55:29;99812.53;;;30.59;25.05
65175;BME280;51761;42.126;24.752;2022-07-12T11:58:14;99823.59;;;30.55;24.65
65175;BME280;51761;42.126;24.752;2022-07-12T12:00:40;99794.31;;;30.51;24.28
65175;BME280;51761;42.126;24.752;2022-07-12T12:03:06;99808.38;;;30.94;24.21
65175;BME280;51761;42.126;24.752;2022-07-12T12:05:33;99803.56;;;30.96;24.74
65175;BME280;51761;42.126;24.752;2022-07-12T12:08:03;99809.94;;;30.82;24.04
65175;BME280;51761;42.126;24.752;2022-07-12T12:10:29;99769.56;;;30.82;24.96
65175;BME280;51761;42.126;24.752;2022-07-12T12:12:56;99795.53;;;30.69;23.90
65175;BME280;51761;42.126;24.752;2022-07-12T12:15:23;99813.28;;;30.60;23.51
65175;BME280;51761;42.126;24.752;2022-07-12T12:20:23;99807.41;;;30.78;23.29
65175;BME280;51761;42.126;24.752;2022-07-12T12:22:54;99793.53;;;30.51;22.61
65175;BME280;51761;42.126;24.752;2022-07-12T12:25:20;99786.91;;;31.02;23.90
65175;BME280;51761;42.126;24.752;2022-07-12T12:27:47;99796.56;;;31.38;23.58
65175;BME280;51761;42.126;24.752;2022-07-12T12:30:15;99786.31;;;31.16;23.31
65175;BME280;51761;42.126;24.752;2022-07-12T12:35:10;99792.25;;;30.98;24.35
65175;BME280;51761;42.126;24.752;2022-07-12T12:37:36;99786.31;;;31.16;24.28
65175;BME280;51761;42.126;24.752;2022-07-12T12:40:03;99782.19;;;31.25;23.81
65175;BME280;51761;42.126;24.752;2022-07-12T12:42:29;99769.81;;;31.17;24.10
65175;BME280;51761;42.126;24.752;2022-07-12T12:44:55;99790.13;;;31.12;23.78
65175;BME280;51761;42.126;24.752;2022-07-12T12:47:20;99780.22;;;31.40;23.17
65175;BME280;51761;42.126;24.752;2022-07-12T12:50:02;99775.50;;;31.91;22.48
65175;BME280;51761;42.126;24.752;2022-07-12T12:52:30;99754.56;;;31.98;23.51
65175;BME280;51761;42.126;24.752;2022-07-12T12:54:57;99757.66;;;32.00;22.45
65175;BME280;51761;42.126;24.752;2022-07-12T12:57:24;99778.97;;;32.46;23.30
65175;BME280;51761;42.126;24.752;2022-07-12T12:59:52;99784.03;;;32.53;23.27
65175;BME280;51761;42.126;24.752;2022-07-12T13:02:18;99765.63;;;32.07;23.12
65175;BME280;51761;42.126;24.752;2022-07-12T13:04:45;99754.25;;;31.81;23.29
65175;BME280;51761;42.126;24.752;2022-07-12T13:07:11;99768.34;;;31.85;23.24
65175;BME280;51761;42.126;24.752;2022-07-12T13:09:36;99782.28;;;31.32;22.88
65175;BME280;51761;42.126;24.752;2022-07-12T13:12:03;99776.91;;;31.03;22.76
65175;BME280;51761;42.126;24.752;2022-07-12T13:14:29;99768.69;;;30.61;24.29
65175;BME280;51761;42.126;24.752;2022-07-12T13:16:55;99764.00;;;30.84;23.87